Terminal Aerodrome Forecast
Issued by NWS Boston, MA

Home | Current Version | Previous Version | Text Only | Print | Product List | Glossary Off
Versions: 1 2 3 4 5 6 7 8 9 10 11 12 13 14 15 16 17 18 19 20 21 22 23 24 25 26 27 28 29 30 31 32 33 34 35 36 37 38 39 40
000 FTUS41 KBOX 242339 TAFPVD TAF KPVD 242339Z 2500/2524 36003KT 3SM -RA BR OVC004 WS020/19040KT FM250200 17011G19KT 1SM -RA BR OVC008 WS020/20045KT FM250400 19015KT 1SM -RA BR OVC008 FM250600 20016G24KT 2SM RA BR OVC008 FM251500 24014G23KT P6SM BKN090=

USA.gov is the U.S. government's official web portal to all federal, state and local government web resources and services.